sensor_id;sensor_type;location;lat;lon;timestamp;P1;durP1;ratioP1;P2;durP2;ratioP2
25990;SDS011;13779;-33.886;151.198;2024-02-26T00:02:12;19.30;;;8.25;;
25990;SDS011;13779;-33.886;151.198;2024-02-26T00:04:43;16.00;;;7.57;;
25990;SDS011;13779;-33.886;151.198;2024-02-26T00:07:13;20.83;;;7.70;;
25990;SDS011;13779;-33.886;151.198;2024-02-26T00:09:43;11.90;;;6.32;;
25990;SDS011;13779;-33.886;151.198;2024-02-26T00:12:13;13.55;;;5.75;;
25990;SDS011;13779;-33.886;151.198;2024-02-26T00:14:44;14.65;;;5.70;;
25990;SDS011;13779;-33.886;151.198;2024-02-26T00:17:15;13.77;;;5.88;;
25990;SDS011;13779;-33.886;151.198;2024-02-26T00:19:45;12.57;;;5.90;;
25990;SDS011;13779;-33.886;151.198;2024-02-26T00:22:15;17.53;;;6.10;;
25990;SDS011;13779;-33.886;151.198;2024-02-26T00:24:46;16.73;;;6.00;;
25990;SDS011;13779;-33.886;151.198;2024-02-26T00:27:16;14.50;;;7.07;;
25990;SDS011;13779;-33.886;151.198;2024-02-26T00:29:46;15.30;;;6.27;;
25990;SDS011;13779;-33.886;151.198;2024-02-26T00:32:16;15.70;;;6.68;;
25990;SDS011;13779;-33.886;151.198;2024-02-26T00:34:46;9.70;;;5.73;;
25990;SDS011;13779;-33.886;151.198;2024-02-26T00:37:17;12.23;;;5.57;;
25990;SDS011;13779;-33.886;151.198;2024-02-26T00:39:48;10.63;;;4.68;;
25990;SDS011;13779;-33.886;151.198;2024-02-26T00:42:21;12.05;;;4.97;;
25990;SDS011;13779;-33.886;151.198;2024-02-26T00:44:52;14.93;;;5.32;;
25990;SDS011;13779;-33.886;151.198;2024-02-26T00:49:53;12.70;;;4.63;;
25990;SDS011;13779;-33.886;151.198;2024-02-26T00:52:23;9.40;;;3.97;;
25990;SDS011;13779;-33.886;151.198;2024-02-26T00:54:54;13.07;;;3.58;;
25990;SDS011;13779;-33.886;151.198;2024-02-26T00:57:24;9.13;;;3.30;;
25990;SDS011;13779;-33.886;151.198;2024-02-26T00:59:55;9.30;;;3.70;;
25990;SDS011;13779;-33.886;151.198;2024-02-26T01:04:56;14.20;;;4.15;;
25990;SDS011;13779;-33.886;151.198;2024-02-26T01:07:26;14.73;;;3.85;;
25990;SDS011;13779;-33.886;151.198;2024-02-26T01:09:57;18.85;;;4.60;;
25990;SDS011;13779;-33.886;151.198;2024-02-26T01:12:28;13.55;;;4.80;;
25990;SDS011;13779;-33.886;151.198;2024-02-26T01:15:02;14.77;;;5.22;;
25990;SDS011;13779;-33.886;151.198;2024-02-26T01:20:03;18.77;;;6.28;;
25990;SDS011;13779;-33.886;151.198;2024-02-26T01:22:36;16.98;;;5.78;;
25990;SDS011;13779;-33.886;151.198;2024-02-26T01:25:07;17.52;;;5.80;;
25990;SDS011;13779;-33.886;151.198;2024-02-26T01:27:41;21.73;;;6.63;;
25990;SDS011;13779;-33.886;151.198;2024-02-26T01:32:45;17.73;;;6.50;;
25990;SDS011;13779;-33.886;151.198;2024-02-26T01:35:15;19.90;;;6.82;;
25990;SDS011;13779;-33.886;151.198;2024-02-26T01:37:46;21.92;;;5.72;;
25990;SDS011;13779;-33.886;151.198;2024-02-26T01:40:17;18.83;;;5.93;;
25990;SDS011;13779;-33.886;151.198;2024-02-26T01:42:49;19.52;;;6.38;;
25990;SDS011;13779;-33.886;151.198;2024-02-26T01:45:21;20.77;;;6.93;;
25990;SDS011;13779;-33.886;151.198;2024-02-26T01:47:55;29.45;;;8.35;;
25990;SDS011;13779;-33.886;151.198;2024-02-26T01:50:26;18.45;;;6.75;;
25990;SDS011;13779;-33.886;151.198;2024-02-26T01:52:57;21.30;;;5.72;;
25990;SDS011;13779;-33.886;151.198;2024-02-26T01:55:27;18.00;;;5.85;;
25990;SDS011;13779;-33.886;151.198;2024-02-26T01:57:58;19.17;;;5.97;;
25990;SDS011;13779;-33.886;151.198;2024-02-26T02:00:29;23.83;;;5.70;;
25990;SDS011;13779;-33.886;151.198;2024-02-26T02:08:02;15.68;;;6.03;;
25990;SDS011;13779;-33.886;151.198;2024-02-26T02:10:33;16.45;;;6.53;;
25990;SDS011;13779;-33.886;151.198;2024-02-26T02:15:34;16.02;;;6.15;;
25990;SDS011;13779;-33.886;151.198;2024-02-26T02:18:05;14.82;;;6.13;;
25990;SDS011;13779;-33.886;151.198;2024-02-26T02:20:36;16.35;;;6.18;;
25990;SDS011;13779;-33.886;151.198;2024-02-26T02:23:09;17.05;;;6.90;;
25990;SDS011;13779;-33.886;151.198;2024-02-26T02:25:40;19.83;;;7.07;;
25990;SDS011;13779;-33.886;151.198;2024-02-26T02:28:11;20.08;;;7.55;;
25990;SDS011;13779;-33.886;151.198;2024-02-26T02:30:41;16.70;;;7.03;;
25990;SDS011;13779;-33.886;151.198;2024-02-26T02:33:12;17.35;;;7.32;;
25990;SDS011;13779;-33.886;151.198;2024-02-26T02:35:44;16.77;;;6.80;;
25990;SDS011;13779;-33.886;151.198;2024-02-26T02:38:17;17.83;;;6.93;;
25990;SDS011;13779;-33.886;151.198;2024-02-26T02:40:48;17.60;;;7.28;;
25990;SDS011;13779;-33.886;151.198;2024-02-26T02:43:19;18.75;;;7.50;;
25990;SDS011;13779;-33.886;151.198;2024-02-26T02:45:49;16.70;;;7.63;;
25990;SDS011;13779;-33.886;151.198;2024-02-26T02:48:20;21.30;;;7.80;;
25990;SDS011;13779;-33.886;151.198;2024-02-26T02:50:51;19.58;;;8.90;;
25990;SDS011;13779;-33.886;151.198;2024-02-26T02:53:21;24.02;;;9.50;;
25990;SDS011;13779;-33.886;151.198;2024-02-26T02:55:52;17.25;;;9.18;;
25990;SDS011;13779;-33.886;151.198;2024-02-26T02:58:22;17.65;;;8.18;;
25990;SDS011;13779;-33.886;151.198;2024-02-26T03:00:53;22.75;;;11.88;;
25990;SDS011;13779;-33.886;151.198;2024-02-26T03:03:24;18.55;;;9.32;;
25990;SDS011;13779;-33.886;151.198;2024-02-26T03:05:54;29.67;;;10.65;;
25990;SDS011;13779;-33.886;151.198;2024-02-26T03:08:25;22.73;;;10.23;;
25990;SDS011;13779;-33.886;151.198;2024-02-26T03:10:58;21.55;;;10.40;;
25990;SDS011;13779;-33.886;151.198;2024-02-26T03:13:28;20.48;;;10.80;;
25990;SDS011;13779;-33.886;151.198;2024-02-26T03:16:04;24.25;;;10.80;;
25990;SDS011;13779;-33.886;151.198;2024-02-26T03:18:35;25.30;;;10.98;;
25990;SDS011;13779;-33.886;151.198;2024-02-26T03:21:08;19.83;;;10.20;;
25990;SDS011;13779;-33.886;151.198;2024-02-26T03:23:38;24.92;;;10.40;;
25990;SDS011;13779;-33.886;151.198;2024-02-26T03:26:09;21.63;;;9.63;;
25990;SDS011;13779;-33.886;151.198;2024-02-26T03:28:43;25.05;;;10.20;;
25990;SDS011;13779;-33.886;151.198;2024-02-26T03:31:13;17.17;;;8.88;;
25990;SDS011;13779;-33.886;151.198;2024-02-26T03:33:44;19.55;;;9.23;;
25990;SDS011;13779;-33.886;151.198;2024-02-26T03:36:15;16.50;;;8.52;;
25990;SDS011;13779;-33.886;151.198;2024-02-26T03:41:16;20.77;;;8.65;;
25990;SDS011;13779;-33.886;151.198;2024-02-26T03:43:47;24.45;;;8.07;;
25990;SDS011;13779;-33.886;151.198;2024-02-26T03:46:17;26.85;;;8.80;;
25990;SDS011;13779;-33.886;151.198;2024-02-26T03:48:49;19.75;;;9.45;;
25990;SDS011;13779;-33.886;151.198;2024-02-26T03:51:20;23.08;;;8.48;;
25990;SDS011;13779;-33.886;151.198;2024-02-26T03:53:51;19.27;;;8.40;;
25990;SDS011;13779;-33.886;151.198;2024-02-26T03:56:21;18.45;;;7.80;;
25990;SDS011;13779;-33.886;151.198;2024-02-26T03:58:52;19.13;;;7.95;;
25990;SDS011;13779;-33.886;151.198;2024-02-26T04:01:23;22.25;;;7.88;;
25990;SDS011;13779;-33.886;151.198;2024-02-26T04:03:54;18.30;;;8.57;;
25990;SDS011;13779;-33.886;151.198;2024-02-26T04:06:24;16.35;;;7.85;;
25990;SDS011;13779;-33.886;151.198;2024-02-26T04:08:55;27.10;;;8.38;;
25990;SDS011;13779;-33.886;151.198;2024-02-26T04:11:26;26.35;;;9.75;;
25990;SDS011;13779;-33.886;151.198;2024-02-26T04:13:57;18.00;;;8.07;;
25990;SDS011;13779;-33.886;151.198;2024-02-26T04:16:27;22.23;;;8.13;;
25990;SDS011;13779;-33.886;151.198;2024-02-26T04:18:58;22.92;;;8.00;;
25990;SDS011;13779;-33.886;151.198;2024-02-26T04:21:29;21.98;;;8.57;;
25990;SDS011;13779;-33.886;151.198;2024-02-26T04:23:59;23.58;;;8.77;;
25990;SDS011;13779;-33.886;151.198;2024-02-26T04:26:30;24.25;;;9.93;;
25990;SDS011;13779;-33.886;151.198;2024-02-26T04:29:01;25.88;;;8.52;;
25990;SDS011;13779;-33.886;151.198;2024-02-26T04:31:31;16.67;;;8.57;;
25990;SDS011;13779;-33.886;151.198;2024-02-26T04:34:02;20.52;;;9.18;;
25990;SDS011;13779;-33.886;151.198;2024-02-26T04:36:33;18.77;;;9.30;;
25990;SDS011;13779;-33.886;151.198;2024-02-26T04:39:03;20.60;;;9.30;;
25990;SDS011;13779;-33.886;151.198;2024-02-26T04:41:36;19.23;;;8.35;;
25990;SDS011;13779;-33.886;151.198;2024-02-26T04:44:06;19.83;;;8.60;;
25990;SDS011;13779;-33.886;151.198;2024-02-26T04:46:38;19.48;;;8.57;;
25990;SDS011;13779;-33.886;151.198;2024-02-26T04:49:09;15.70;;;8.30;;
25990;SDS011;13779;-33.886;151.198;2024-02-26T04:51:39;15.63;;;8.32;;
25990;SDS011;13779;-33.886;151.198;2024-02-26T04:54:11;17.00;;;8.60;;
25990;SDS011;13779;-33.886;151.198;2024-02-26T04:56:42;14.95;;;8.23;;
25990;SDS011;13779;-33.886;151.198;2024-02-26T04:59:13;20.70;;;9.20;;
25990;SDS011;13779;-33.886;151.198;2024-02-26T05:01:43;17.83;;;8.52;;
25990;SDS011;13779;-33.886;151.198;2024-02-26T05:04:14;18.20;;;8.23;;
25990;SDS011;13779;-33.886;151.198;2024-02-26T05:06:45;19.38;;;8.00;;
25990;SDS011;13779;-33.886;151.198;2024-02-26T05:09:15;17.48;;;8.45;;
25990;SDS011;13779;-33.886;151.198;2024-02-26T05:14:16;18.35;;;8.38;;
25990;SDS011;13779;-33.886;151.198;2024-02-26T05:16:47;14.80;;;8.70;;
25990;SDS011;13779;-33.886;151.198;2024-02-26T05:19:19;16.25;;;8.05;;
25990;SDS011;13779;-33.886;151.198;2024-02-26T05:21:49;17.67;;;9.00;;
25990;SDS011;13779;-33.886;151.198;2024-02-26T05:24:20;17.48;;;8.38;;
25990;SDS011;13779;-33.886;151.198;2024-02-26T05:26:51;17.90;;;8.20;;
25990;SDS011;13779;-33.886;151.198;2024-02-26T05:29:23;15.18;;;7.97;;
25990;SDS011;13779;-33.886;151.198;2024-02-26T05:31:54;25.02;;;8.50;;
25990;SDS011;13779;-33.886;151.198;2024-02-26T05:34:24;17.67;;;7.43;;
25990;SDS011;13779;-33.886;151.198;2024-02-26T05:36:55;20.05;;;7.85;;
25990;SDS011;13779;-33.886;151.198;2024-02-26T05:39:25;15.63;;;7.32;;
25990;SDS011;13779;-33.886;151.198;2024-02-26T05:41:56;18.95;;;8.65;;
25990;SDS011;13779;-33.886;151.198;2024-02-26T05:44:28;17.77;;;8.00;;
25990;SDS011;13779;-33.886;151.198;2024-02-26T05:46:58;17.05;;;7.55;;
25990;SDS011;13779;-33.886;151.198;2024-02-26T05:49:30;32.70;;;11.43;;
25990;SDS011;13779;-33.886;151.198;2024-02-26T05:54:31;29.13;;;8.98;;
25990;SDS011;13779;-33.886;151.198;2024-02-26T05:57:02;35.28;;;9.95;;
25990;SDS011;13779;-33.886;151.198;2024-02-26T05:59:33;35.05;;;9.88;;
25990;SDS011;13779;-33.886;151.198;2024-02-26T06:04:34;28.55;;;9.25;;
25990;SDS011;13779;-33.886;151.198;2024-02-26T06:07:05;36.03;;;10.18;;
25990;SDS011;13779;-33.886;151.198;2024-02-26T06:09:35;33.75;;;8.23;;
25990;SDS011;13779;-33.886;151.198;2024-02-26T06:12:06;30.40;;;8.48;;
25990;SDS011;13779;-33.886;151.198;2024-02-26T06:14:38;24.13;;;8.02;;
25990;SDS011;13779;-33.886;151.198;2024-02-26T06:17:09;26.67;;;10.30;;
25990;SDS011;13779;-33.886;151.198;2024-02-26T06:19:39;33.72;;;8.93;;
25990;SDS011;13779;-33.886;151.198;2024-02-26T06:22:10;26.75;;;8.93;;
25990;SDS011;13779;-33.886;151.198;2024-02-26T06:24:41;34.80;;;8.90;;
25990;SDS011;13779;-33.886;151.198;2024-02-26T06:27:11;34.45;;;10.73;;
25990;SDS011;13779;-33.886;151.198;2024-02-26T06:29:42;28.52;;;8.25;;
25990;SDS011;13779;-33.886;151.198;2024-02-26T06:32:13;38.40;;;9.25;;
25990;SDS011;13779;-33.886;151.198;2024-02-26T06:34:44;29.27;;;8.93;;
25990;SDS011;13779;-33.886;151.198;2024-02-26T06:37:14;33.22;;;9.30;;
25990;SDS011;13779;-33.886;151.198;2024-02-26T06:39:46;37.47;;;9.13;;
25990;SDS011;13779;-33.886;151.198;2024-02-26T06:42:16;37.65;;;9.48;;
25990;SDS011;13779;-33.886;151.198;2024-02-26T06:44:47;41.95;;;11.05;;
25990;SDS011;13779;-33.886;151.198;2024-02-26T06:47:17;48.57;;;11.40;;
25990;SDS011;13779;-33.886;151.198;2024-02-26T06:49:48;34.75;;;10.20;;
25990;SDS011;13779;-33.886;151.198;2024-02-26T06:52:19;33.00;;;10.93;;
25990;SDS011;13779;-33.886;151.198;2024-02-26T06:54:49;47.07;;;12.23;;
25990;SDS011;13779;-33.886;151.198;2024-02-26T06:57:21;37.90;;;10.95;;
25990;SDS011;13779;-33.886;151.198;2024-02-26T06:59:52;36.67;;;11.20;;
25990;SDS011;13779;-33.886;151.198;2024-02-26T07:02:22;42.33;;;10.95;;
25990;SDS011;13779;-33.886;151.198;2024-02-26T07:04:52;61.13;;;17.43;;
25990;SDS011;13779;-33.886;151.198;2024-02-26T07:07:25;40.17;;;10.85;;
25990;SDS011;13779;-33.886;151.198;2024-02-26T07:09:55;45.05;;;11.57;;
25990;SDS011;13779;-33.886;151.198;2024-02-26T07:12:26;33.92;;;9.35;;
25990;SDS011;13779;-33.886;151.198;2024-02-26T07:14:56;31.17;;;9.40;;
25990;SDS011;13779;-33.886;151.198;2024-02-26T07:17:26;46.20;;;12.95;;
25990;SDS011;13779;-33.886;151.198;2024-02-26T07:22:29;50.00;;;13.98;;
25990;SDS011;13779;-33.886;151.198;2024-02-26T07:24:59;39.00;;;10.30;;
25990;SDS011;13779;-33.886;151.198;2024-02-26T07:27:30;39.53;;;9.57;;
25990;SDS011;13779;-33.886;151.198;2024-02-26T07:30:00;57.60;;;14.73;;
25990;SDS011;13779;-33.886;151.198;2024-02-26T07:32:30;35.28;;;11.23;;
25990;SDS011;13779;-33.886;151.198;2024-02-26T07:35:01;44.67;;;9.30;;
25990;SDS011;13779;-33.886;151.198;2024-02-26T07:37:31;42.97;;;10.75;;
25990;SDS011;13779;-33.886;151.198;2024-02-26T07:40:03;30.88;;;7.32;;
25990;SDS011;13779;-33.886;151.198;2024-02-26T07:42:36;30.13;;;7.70;;
25990;SDS011;13779;-33.886;151.198;2024-02-26T07:47:37;28.00;;;7.38;;
25990;SDS011;13779;-33.886;151.198;2024-02-26T07:50:10;28.27;;;7.50;;
25990;SDS011;13779;-33.886;151.198;2024-02-26T07:52:40;28.73;;;8.05;;
25990;SDS011;13779;-33.886;151.198;2024-02-26T07:55:10;29.48;;;8.13;;
25990;SDS011;13779;-33.886;151.198;2024-02-26T07:57:43;29.90;;;6.87;;
25990;SDS011;13779;-33.886;151.198;2024-02-26T08:00:14;25.67;;;7.10;;
25990;SDS011;13779;-33.886;151.198;2024-02-26T08:02:45;29.73;;;6.85;;
25990;SDS011;13779;-33.886;151.198;2024-02-26T08:05:15;24.45;;;5.80;;
25990;SDS011;13779;-33.886;151.198;2024-02-26T08:07:46;24.63;;;7.78;;
25990;SDS011;13779;-33.886;151.198;2024-02-26T08:10:16;30.52;;;6.85;;
25990;SDS011;13779;-33.886;151.198;2024-02-26T08:12:46;31.27;;;7.97;;
25990;SDS011;13779;-33.886;151.198;2024-02-26T08:15:17;25.23;;;6.73;;
25990;SDS011;13779;-33.886;151.198;2024-02-26T08:17:47;28.42;;;7.57;;
25990;SDS011;13779;-33.886;151.198;2024-02-26T08:20:18;34.38;;;7.78;;
25990;SDS011;13779;-33.886;151.198;2024-02-26T08:22:48;26.73;;;7.37;;
25990;SDS011;13779;-33.886;151.198;2024-02-26T08:25:18;33.07;;;6.97;;
25990;SDS011;13779;-33.886;151.198;2024-02-26T08:27:48;26.03;;;7.20;;
25990;SDS011;13779;-33.886;151.198;2024-02-26T08:30:19;33.10;;;8.07;;
25990;SDS011;13779;-33.886;151.198;2024-02-26T08:32:50;28.27;;;7.32;;
25990;SDS011;13779;-33.886;151.198;2024-02-26T08:35:21;33.05;;;6.72;;
25990;SDS011;13779;-33.886;151.198;2024-02-26T08:37:51;25.27;;;7.65;;
25990;SDS011;13779;-33.886;151.198;2024-02-26T08:40:22;20.97;;;6.27;;
25990;SDS011;13779;-33.886;151.198;2024-02-26T08:45:22;26.80;;;7.50;;
25990;SDS011;13779;-33.886;151.198;2024-02-26T08:47:54;27.63;;;6.97;;
25990;SDS011;13779;-33.886;151.198;2024-02-26T08:50:25;28.60;;;7.60;;
25990;SDS011;13779;-33.886;151.198;2024-02-26T08:52:55;29.73;;;5.27;;
25990;SDS011;13779;-33.886;151.198;2024-02-26T08:55:25;32.03;;;6.53;;
25990;SDS011;13779;-33.886;151.198;2024-02-26T08:57:56;26.43;;;7.10;;
25990;SDS011;13779;-33.886;151.198;2024-02-26T09:00:26;31.30;;;7.15;;
25990;SDS011;13779;-33.886;151.198;2024-02-26T09:02:56;34.45;;;9.25;;
25990;SDS011;13779;-33.886;151.198;2024-02-26T09:05:30;29.42;;;7.10;;
25990;SDS011;13779;-33.886;151.198;2024-02-26T09:08:01;26.13;;;8.13;;
25990;SDS011;13779;-33.886;151.198;2024-02-26T09:10:34;32.50;;;7.15;;
25990;SDS011;13779;-33.886;151.198;2024-02-26T09:13:05;24.52;;;5.95;;
25990;SDS011;13779;-33.886;151.198;2024-02-26T09:18:05;26.88;;;7.78;;
25990;SDS011;13779;-33.886;151.198;2024-02-26T09:20:35;34.30;;;6.90;;
25990;SDS011;13779;-33.886;151.198;2024-02-26T09:23:06;29.93;;;5.73;;
25990;SDS011;13779;-33.886;151.198;2024-02-26T09:25:36;28.93;;;6.47;;
25990;SDS011;13779;-33.886;151.198;2024-02-26T09:28:06;29.63;;;6.43;;
25990;SDS011;13779;-33.886;151.198;2024-02-26T09:30:37;31.77;;;6.83;;
25990;SDS011;13779;-33.886;151.198;2024-02-26T09:33:07;25.63;;;5.80;;
25990;SDS011;13779;-33.886;151.198;2024-02-26T09:35:37;27.43;;;6.43;;
25990;SDS011;13779;-33.886;151.198;2024-02-26T09:38:07;31.27;;;7.33;;
25990;SDS011;13779;-33.886;151.198;2024-02-26T09:40:39;27.70;;;8.20;;
25990;SDS011;13779;-33.886;151.198;2024-02-26T09:43:10;24.90;;;6.03;;
25990;SDS011;13779;-33.886;151.198;2024-02-26T09:45:46;24.55;;;5.40;;
25990;SDS011;13779;-33.886;151.198;2024-02-26T09:48:19;28.30;;;7.47;;
25990;SDS011;13779;-33.886;151.198;2024-02-26T09:50:51;28.20;;;6.18;;
25990;SDS011;13779;-33.886;151.198;2024-02-26T09:53:22;23.63;;;6.85;;
25990;SDS011;13779;-33.886;151.198;2024-02-26T09:55:52;29.85;;;6.40;;
25990;SDS011;13779;-33.886;151.198;2024-02-26T09:58:22;26.65;;;6.40;;
25990;SDS011;13779;-33.886;151.198;2024-02-26T10:00:56;30.88;;;6.80;;
25990;SDS011;13779;-33.886;151.198;2024-02-26T10:03:31;26.73;;;6.72;;
25990;SDS011;13779;-33.886;151.198;2024-02-26T10:06:08;32.17;;;7.78;;
25990;SDS011;13779;-33.886;151.198;2024-02-26T10:08:39;24.90;;;7.22;;
25990;SDS011;13779;-33.886;151.198;2024-02-26T10:11:10;22.48;;;6.00;;
25990;SDS011;13779;-33.886;151.198;2024-02-26T10:13:42;27.35;;;6.22;;
25990;SDS011;13779;-33.886;151.198;2024-02-26T10:16:12;30.73;;;7.75;;
25990;SDS011;13779;-33.886;151.198;2024-02-26T10:18:49;27.30;;;7.03;;
25990;SDS011;13779;-33.886;151.198;2024-02-26T10:21:23;23.92;;;5.82;;
25990;SDS011;13779;-33.886;151.198;2024-02-26T10:23:54;17.70;;;5.63;;
25990;SDS011;13779;-33.886;151.198;2024-02-26T10:26:24;22.33;;;5.53;;
25990;SDS011;13779;-33.886;151.198;2024-02-26T10:28:54;23.27;;;6.07;;
25990;SDS011;13779;-33.886;151.198;2024-02-26T10:31:30;22.40;;;5.95;;
25990;SDS011;13779;-33.886;151.198;2024-02-26T10:34:00;22.93;;;5.70;;
25990;SDS011;13779;-33.886;151.198;2024-02-26T10:36:33;21.40;;;5.35;;
25990;SDS011;13779;-33.886;151.198;2024-02-26T10:39:07;29.23;;;7.18;;
25990;SDS011;13779;-33.886;151.198;2024-02-26T10:41:39;22.58;;;5.07;;
25990;SDS011;13779;-33.886;151.198;2024-02-26T10:44:10;28.55;;;5.70;;
25990;SDS011;13779;-33.886;151.198;2024-02-26T10:46:44;29.60;;;5.85;;
25990;SDS011;13779;-33.886;151.198;2024-02-26T10:49:19;20.08;;;5.93;;
25990;SDS011;13779;-33.886;151.198;2024-02-26T10:51:55;22.90;;;5.88;;
25990;SDS011;13779;-33.886;151.198;2024-02-26T10:54:26;27.65;;;6.35;;
25990;SDS011;13779;-33.886;151.198;2024-02-26T10:56:59;28.52;;;6.15;;
25990;SDS011;13779;-33.886;151.198;2024-02-26T10:59:30;33.72;;;7.32;;
25990;SDS011;13779;-33.886;151.198;2024-02-26T11:02:04;25.55;;;6.45;;
25990;SDS011;13779;-33.886;151.198;2024-02-26T11:04:37;20.67;;;5.30;;
25990;SDS011;13779;-33.886;151.198;2024-02-26T11:07:09;24.02;;;5.47;;
25990;SDS011;13779;-33.886;151.198;2024-02-26T11:09:40;36.67;;;7.97;;
25990;SDS011;13779;-33.886;151.198;2024-02-26T11:12:13;27.10;;;7.22;;
25990;SDS011;13779;-33.886;151.198;2024-02-26T11:14:45;30.88;;;6.75;;
25990;SDS011;13779;-33.886;151.198;2024-02-26T11:17:19;24.92;;;6.70;;
25990;SDS011;13779;-33.886;151.198;2024-02-26T11:19:51;21.40;;;6.45;;
25990;SDS011;13779;-33.886;151.198;2024-02-26T11:22:26;25.23;;;6.43;;
25990;SDS011;13779;-33.886;151.198;2024-02-26T11:24:57;25.60;;;6.50;;
25990;SDS011;13779;-33.886;151.198;2024-02-26T11:27:33;27.80;;;8.20;;
25990;SDS011;13779;-33.886;151.198;2024-02-26T11:30:10;22.25;;;6.47;;
25990;SDS011;13779;-33.886;151.198;2024-02-26T11:32:45;29.38;;;6.82;;
25990;SDS011;13779;-33.886;151.198;2024-02-26T11:35:17;27.67;;;6.47;;
25990;SDS011;13779;-33.886;151.198;2024-02-26T11:37:51;27.13;;;5.72;;
25990;SDS011;13779;-33.886;151.198;2024-02-26T11:40:24;32.33;;;6.60;;
25990;SDS011;13779;-33.886;151.198;2024-02-26T11:42:55;24.15;;;6.45;;
25990;SDS011;13779;-33.886;151.198;2024-02-26T11:48:15;28.50;;;7.30;;
25990;SDS011;13779;-33.886;151.198;2024-02-26T11:50:50;22.73;;;5.38;;
25990;SDS011;13779;-33.886;151.198;2024-02-26T11:53:23;32.03;;;6.47;;
25990;SDS011;13779;-33.886;151.198;2024-02-26T11:58:48;29.83;;;7.55;;
25990;SDS011;13779;-33.886;151.198;2024-02-26T12:01:45;31.25;;;6.15;;
25990;SDS011;13779;-33.886;151.198;2024-02-26T12:04:18;18.17;;;5.07;;
25990;SDS011;13779;-33.886;151.198;2024-02-26T12:07:04;22.73;;;5.85;;
25990;SDS011;13779;-33.886;151.198;2024-02-26T12:09:36;26.67;;;5.40;;
25990;SDS011;13779;-33.886;151.198;2024-02-26T12:12:09;21.27;;;4.57;;
25990;SDS011;13779;-33.886;151.198;2024-02-26T12:14:53;31.08;;;8.30;;
25990;SDS011;13779;-33.886;151.198;2024-02-26T12:17:26;25.35;;;6.28;;
25990;SDS011;13779;-33.886;151.198;2024-02-26T12:20:05;26.85;;;7.07;;
25990;SDS011;13779;-33.886;151.198;2024-02-26T12:23:04;25.88;;;6.20;;
25990;SDS011;13779;-33.886;151.198;2024-02-26T12:25:35;38.00;;;8.38;;
25990;SDS011;13779;-33.886;151.198;2024-02-26T12:28:06;31.15;;;6.80;;
25990;SDS011;13779;-33.886;151.198;2024-02-26T12:30:37;25.25;;;5.28;;
25990;SDS011;13779;-33.886;151.198;2024-02-26T12:33:07;26.85;;;6.43;;
25990;SDS011;13779;-33.886;151.198;2024-02-26T12:35:38;25.17;;;6.20;;
25990;SDS011;13779;-33.886;151.198;2024-02-26T12:38:09;22.95;;;5.07;;
25990;SDS011;13779;-33.886;151.198;2024-02-26T12:40:40;21.08;;;4.57;;
25990;SDS011;13779;-33.886;151.198;2024-02-26T12:43:11;21.05;;;6.03;;
25990;SDS011;13779;-33.886;151.198;2024-02-26T12:45:43;25.77;;;5.70;;
25990;SDS011;13779;-33.886;151.198;2024-02-26T12:48:16;25.17;;;5.80;;
25990;SDS011;13779;-33.886;151.198;2024-02-26T12:50:47;29.88;;;5.05;;
25990;SDS011;13779;-33.886;151.198;2024-02-26T12:53:17;34.00;;;6.25;;
25990;SDS011;13779;-33.886;151.198;2024-02-26T12:55:48;25.95;;;6.22;;
25990;SDS011;13779;-33.886;151.198;2024-02-26T12:58:19;26.83;;;5.68;;
25990;SDS011;13779;-33.886;151.198;2024-02-26T13:00:56;26.13;;;6.20;;
25990;SDS011;13779;-33.886;151.198;2024-02-26T13:03:28;24.73;;;5.13;;
25990;SDS011;13779;-33.886;151.198;2024-02-26T13:08:29;26.25;;;6.70;;
25990;SDS011;13779;-33.886;151.198;2024-02-26T13:11:01;24.00;;;5.18;;
25990;SDS011;13779;-33.886;151.198;2024-02-26T13:13:32;26.42;;;6.07;;
25990;SDS011;13779;-33.886;151.198;2024-02-26T13:16:03;17.85;;;5.07;;
25990;SDS011;13779;-33.886;151.198;2024-02-26T13:18:36;24.63;;;5.07;;
25990;SDS011;13779;-33.886;151.198;2024-02-26T13:21:08;25.25;;;4.55;;
25990;SDS011;13779;-33.886;151.198;2024-02-26T13:23:48;27.25;;;5.43;;
25990;SDS011;13779;-33.886;151.198;2024-02-26T13:26:21;19.60;;;4.20;;
25990;SDS011;13779;-33.886;151.198;2024-02-26T13:29:01;23.77;;;5.72;;
25990;SDS011;13779;-33.886;151.198;2024-02-26T13:31:38;23.17;;;4.60;;
25990;SDS011;13779;-33.886;151.198;2024-02-26T13:34:10;19.38;;;4.35;;
25990;SDS011;13779;-33.886;151.198;2024-02-26T13:36:53;23.23;;;4.78;;
25990;SDS011;13779;-33.886;151.198;2024-02-26T13:41:54;29.92;;;4.53;;
25990;SDS011;13779;-33.886;151.198;2024-02-26T13:46:55;19.55;;;4.63;;
25990;SDS011;13779;-33.886;151.198;2024-02-26T13:49:26;19.33;;;4.60;;
25990;SDS011;13779;-33.886;151.198;2024-02-26T13:51:56;25.75;;;4.70;;
25990;SDS011;13779;-33.886;151.198;2024-02-26T13:54:27;30.00;;;5.28;;
25990;SDS011;13779;-33.886;151.198;2024-02-26T13:59:28;22.80;;;4.55;;
25990;SDS011;13779;-33.886;151.198;2024-02-26T14:02:01;21.58;;;4.20;;
25990;SDS011;13779;-33.886;151.198;2024-02-26T14:04:32;21.92;;;4.25;;
25990;SDS011;13779;-33.886;151.198;2024-02-26T14:07:02;28.95;;;5.03;;
25990;SDS011;13779;-33.886;151.198;2024-02-26T14:09:34;21.85;;;3.88;;
25990;SDS011;13779;-33.886;151.198;2024-02-26T14:12:09;16.75;;;3.78;;
25990;SDS011;13779;-33.886;151.198;2024-02-26T14:14:40;22.30;;;4.50;;
25990;SDS011;13779;-33.886;151.198;2024-02-26T14:17:11;23.02;;;3.55;;
25990;SDS011;13779;-33.886;151.198;2024-02-26T14:19:42;28.55;;;4.80;;
25990;SDS011;13779;-33.886;151.198;2024-02-26T14:24:46;23.63;;;4.32;;
25990;SDS011;13779;-33.886;151.198;2024-02-26T14:27:17;24.35;;;4.13;;
25990;SDS011;13779;-33.886;151.198;2024-02-26T14:29:50;16.65;;;4.00;;
25990;SDS011;13779;-33.886;151.198;2024-02-26T14:32:22;21.63;;;4.60;;
25990;SDS011;13779;-33.886;151.198;2024-02-26T14:34:53;24.08;;;4.35;;
25990;SDS011;13779;-33.886;151.198;2024-02-26T14:37:25;21.35;;;4.32;;
25990;SDS011;13779;-33.886;151.198;2024-02-26T14:39:56;21.40;;;3.67;;
25990;SDS011;13779;-33.886;151.198;2024-02-26T14:44:56;22.02;;;4.32;;
25990;SDS011;13779;-33.886;151.198;2024-02-26T14:47:28;20.83;;;3.92;;
25990;SDS011;13779;-33.886;151.198;2024-02-26T14:49:59;16.30;;;3.85;;
25990;SDS011;13779;-33.886;151.198;2024-02-26T14:55:00;22.48;;;4.22;;
25990;SDS011;13779;-33.886;151.198;2024-02-26T14:57:30;22.63;;;4.30;;
25990;SDS011;13779;-33.886;151.198;2024-02-26T15:00:01;17.45;;;4.03;;
25990;SDS011;13779;-33.886;151.198;2024-02-26T15:02:34;23.92;;;4.35;;
25990;SDS011;13779;-33.886;151.198;2024-02-26T15:07:36;16.92;;;3.95;;
25990;SDS011;13779;-33.886;151.198;2024-02-26T15:10:09;19.35;;;3.95;;
25990;SDS011;13779;-33.886;151.198;2024-02-26T15:12:39;16.23;;;3.60;;
25990;SDS011;13779;-33.886;151.198;2024-02-26T15:15:10;16.75;;;3.40;;
25990;SDS011;13779;-33.886;151.198;2024-02-26T15:17:41;17.90;;;3.70;;
25990;SDS011;13779;-33.886;151.198;2024-02-26T15:20:12;19.70;;;3.63;;
25990;SDS011;13779;-33.886;151.198;2024-02-26T15:22:42;29.25;;;4.55;;
25990;SDS011;13779;-33.886;151.198;2024-02-26T15:25:13;15.18;;;3.58;;